Time;durP1;ratioP1;P1;durP2;ratioP2;P2;SDS_P1;SDS_P2;PMS_P1;PMS_P2;Temp;Humidity;BMP_temperature;BMP_pressure;BME280_temperature;BME280_humidity;BME280_pressure;Samples;Min_cycle;Max_cycle;Signal;HPM_P1;HPM_P2
2021/07/16 02:47:56;;;;;;;;;;;14.40;99.90;;;;;;5;36045663;41301636;-86
2021/07/16 02:51:11;;;;;;;;;;;14.30;99.90;;;;;;5;36019586;41270779;-85
2021/07/16 02:54:28;;;;;;;;;;;14.30;99.90;;;;;;5;36019992;41274154;-84
2021/07/16 02:57:48;;;;;;;;;;;14.30;99.90;;;;;;5;36019009;41272138;-86
2021/07/16 03:01:09;;;;;;;;;;;14.20;99.90;;;;;;5;36017819;42022039;-85
2021/07/16 03:04:23;;;;;;;;;;;14.30;99.90;;;;;;5;36018820;41270717;-88
2021/07/16 03:07:41;;;;;;;;;;;14.20;99.90;;;;;;5;36018095;41272702;-85
2021/07/16 03:11:00;;;;;;;;;;;14.20;99.90;;;;;;5;36018146;41271380;-85
2021/07/16 03:14:20;;;;;;;;;;;14.20;99.90;;;;;;5;36017660;41271285;-84
2021/07/16 03:17:36;;;;;;;;;;;14.20;99.90;;;;;;5;36018574;41270238;-84
2021/07/16 03:20:54;;;;;;;;;;;14.20;99.90;;;;;;5;36017387;41270949;-86
2021/07/16 03:24:14;;;;;;;;;;;14.20;99.90;;;;;;5;36018593;41270301;-87
2021/07/16 03:27:34;;;;;;;;;;;14.20;99.90;;;;;;5;36017212;41270316;-90
2021/07/16 03:30:48;;;;;;;;;;;14.20;99.90;;;;;;5;36015837;41267568;-91
2021/07/16 03:34:07;;;;;;;;;;;14.20;99.90;;;;;;5;36014510;42017194;-88
2021/07/16 03:37:26;;;;;;;;;;;14.20;99.90;;;;;;5;36014655;41268271;-91
2021/07/16 03:40:52;;;;;;;;;;;14.20;99.90;;;;;;5;36016521;41266196;-89
2021/07/16 03:44:06;;;;;;;;;;;14.20;99.90;;;;;;5;36015047;41266433;-90
2021/07/16 03:47:23;;;;;;;;;;;14.20;99.90;;;;;;5;36018279;41271374;-85
2021/07/16 03:50:42;;;;;;;;;;;14.20;99.90;;;;;;5;36019117;41271757;-83
2021/07/16 03:54:02;;;;;;;;;;;14.30;99.90;;;;;;5;36017497;41272201;-86
2021/07/16 03:57:16;;;;;;;;;;;14.30;99.90;;;;;;5;36018660;41270574;-84
2021/07/16 04:00:34;;;;;;;;;;;14.40;99.90;;;;;;5;36018348;41271768;-87
2021/07/16 04:03:53;;;;;;;;;;;14.40;99.90;;;;;;5;36025677;41272120;-84
2021/07/16 04:07:17;;;;;;;;;;;14.50;99.90;;;;;;5;36018058;42024127;-84
2021/07/16 04:10:33;;;;;;;;;;;14.60;99.90;;;;;;5;36017254;41270507;-84
2021/07/16 04:13:50;;;;;;;;;;;14.60;99.90;;;;;;5;36017558;41270902;-84
2021/07/16 04:17:12;;;;;;;;;;;14.70;99.90;;;;;;5;36017222;41271579;-86
2021/07/16 04:20:33;;;;;;;;;;;14.70;99.90;;;;;;5;36017631;41270892;-84
2021/07/16 04:23:47;;;;;;;;;;;14.70;99.90;;;;;;5;36017752;41271201;-84
2021/07/16 04:27:05;;;;;;;;;;;14.70;99.90;;;;;;5;36017092;41270598;-85
2021/07/16 04:30:25;;;;;;;;;;;14.70;99.90;;;;;;5;36016674;41269700;-87
2021/07/16 04:33:44;;;;;;;;;;;14.70;99.90;;;;;;5;36018922;41270563;-84
2021/07/16 04:37:00;;;;;;;;;;;14.70;99.90;;;;;;5;36017820;41271240;-85
2021/07/16 04:40:21;;;;;;;;;;;14.70;99.90;;;;;;5;36017275;42021119;-85
2021/07/16 04:43:40;;;;;;;;;;;14.80;99.90;;;;;;5;36016388;41269621;-86
2021/07/16 04:47:00;;;;;;;;;;;14.90;99.90;;;;;;5;36017606;41270249;-85
2021/07/16 04:50:14;;;;;;;;;;;15.00;99.90;;;;;;5;36017336;41270007;-86
2021/07/16 04:53:32;;;;;;;;;;;15.10;99.90;;;;;;5;36018054;41270308;-86
2021/07/16 04:56:51;;;;;;;;;;;15.20;99.90;;;;;;5;36018577;41269955;-84
2021/07/16 05:00:11;;;;;;;;;;;15.40;99.90;;;;;;5;36017242;41270756;-85
2021/07/16 05:03:25;;;;;;;;;;;15.40;99.90;;;;;;5;36017411;41270032;-84
2021/07/16 05:06:42;;;;;;;;;;;15.50;99.90;;;;;;5;36015962;41270436;-83
2021/07/16 05:10:03;;;;;;;;;;;15.50;99.90;;;;;;5;36016432;41270244;-83
2021/07/16 05:13:25;;;;;;;;;;;15.60;99.90;;;;;;5;36017294;42018886;-83
2021/07/16 05:20:34;;;;;;;;;;;15.80;99.90;;;;;;5;36014125;41267883;-84
2021/07/16 05:27:50;;;;;;;;;;;15.80;99.90;;;;;;5;36015805;41268028;-83
2021/07/16 05:34:59;;;;;;;;;;;15.80;99.90;;;;;;5;36016181;41269264;-85
2021/07/16 05:38:18;;;;;;;;;;;15.90;99.90;;;;;;5;36015902;41268685;-85
2021/07/16 05:41:38;;;;;;;;;;;15.80;99.90;;;;;;5;36015509;41272365;-87
2021/07/16 05:44:52;;;;;;;;;;;15.90;99.90;;;;;;5;36019405;41269350;-86
2021/07/16 05:48:11;;;;;;;;;;;16.00;99.90;;;;;;5;36017651;42021523;-88
2021/07/16 05:51:30;;;;;;;;;;;16.10;99.90;;;;;;5;36018490;41271116;-85
2021/07/16 05:54:51;;;;;;;;;;;16.30;99.90;;;;;;5;36016925;41270938;-87
2021/07/16 05:58:05;;;;;;;;;;;16.40;99.90;;;;;;5;36017430;41269564;-87
2021/07/16 06:01:22;;;;;;;;;;;16.40;99.90;;;;;;5;36016925;41271061;-85
2021/07/16 06:04:41;;;;;;;;;;;16.50;99.90;;;;;;5;36017613;41270320;-85
2021/07/16 06:08:01;;;;;;;;;;;16.40;99.90;;;;;;5;36016367;41270586;-86
2021/07/16 06:11:16;;;;;;;;;;;16.50;99.90;;;;;;5;36018554;41270466;-87
2021/07/16 06:14:33;;;;;;;;;;;16.70;99.90;;;;;;5;36016297;41270050;-87
2021/07/16 06:17:53;;;;;;;;;;;16.60;99.90;;;;;;5;36018176;41271523;-86
2021/07/16 06:21:14;;;;;;;;;;;16.70;99.90;;;;;;5;36018815;42020610;-86
2021/07/16 06:24:29;;;;;;;;;;;16.90;99.90;;;;;;5;36018806;41269734;-85
2021/07/16 06:27:46;;;;;;;;;;;17.00;99.90;;;;;;5;36016182;41273990;-84
2021/07/16 06:31:06;;;;;;;;;;;17.00;99.90;;;;;;5;36015094;41270660;-87
2021/07/16 06:34:25;;;;;;;;;;;17.20;99.90;;;;;;5;36016431;41269112;-86
2021/07/16 06:37:40;;;;;;;;;;;17.40;99.90;;;;;;5;36018542;41271670;-84
2021/07/16 06:40:57;;;;;;;;;;;17.40;99.90;;;;;;5;36015997;41268427;-84
2021/07/16 06:44:16;;;;;;;;;;;17.50;99.90;;;;;;5;36015126;41268464;-85
2021/07/16 06:47:36;;;;;;;;;;;17.70;99.90;;;;;;5;36019975;41273583;-84
2021/07/16 06:50:50;;;;;;;;;;;17.80;99.90;;;;;;5;36017011;41272565;-87
2021/07/16 06:54:09;;;;;;;;;;;17.90;99.90;;;;;;5;36017048;42021788;-85
2021/07/16 06:57:28;;;;;;;;;;;18.00;99.90;;;;;;5;36015776;41270128;-84
2021/07/16 07:00:48;;;;;;;;;;;18.30;99.90;;;;;;5;36017439;41269913;-83
2021/07/16 07:04:02;;;;;;;;;;;18.40;99.90;;;;;;5;36017817;41268952;-86
2021/07/16 07:07:21;;;;;;;;;;;18.60;99.90;;;;;;5;36018033;41270934;-84
2021/07/16 07:10:40;;;;;;;;;;;18.90;99.90;;;;;;5;36017874;41269676;-85
2021/07/16 07:14:00;;;;;;;;;;;18.90;99.90;;;;;;5;36018047;41270976;-86
2021/07/16 07:17:14;;;;;;;;;;;19.10;99.90;;;;;;5;36018731;41271574;-83
2021/07/16 07:20:32;;;;;;;;;;;19.10;99.90;;;;;;5;36017803;41271634;-83
2021/07/16 07:23:52;;;;;;;;;;;19.30;99.90;;;;;;5;36020285;41270335;-84
2021/07/16 07:27:13;;;;;;;;;;;19.70;99.90;;;;;;5;36019146;42019608;-84
2021/07/16 07:30:27;;;;;;;;;;;20.00;99.90;;;;;;5;36018055;41271978;-86
2021/07/16 07:33:44;;;;;;;;;;;20.20;99.90;;;;;;5;36018899;41275237;-85
2021/07/16 07:37:04;;;;;;;;;;;20.10;99.90;;;;;;5;36017626;41272383;-84
2021/07/16 07:40:23;;;;;;;;;;;20.10;99.90;;;;;;5;36017061;41271507;-85
2021/07/16 07:43:37;;;;;;;;;;;20.20;99.90;;;;;;5;36018090;41272358;-83
2021/07/16 07:46:55;;;;;;;;;;;20.60;99.90;;;;;;5;36018922;41271694;-84
2021/07/16 07:50:16;;;;;;;;;;;21.00;99.90;;;;;;5;36017088;41271162;-84
2021/07/16 07:53:35;;;;;;;;;;;21.80;99.90;;;;;;5;36019620;41271533;-85
2021/07/16 07:56:49;;;;;;;;;;;22.30;97.90;;;;;;5;36017459;41270267;-86
2021/07/16 08:00:10;;;;;;;;;;;22.80;97.50;;;;;;5;36017622;42022375;-84
2021/07/16 08:03:29;;;;;;;;;;;22.90;96.10;;;;;;5;36016997;41270188;-84
2021/07/16 08:06:49;;;;;;;;;;;23.10;95.30;;;;;;5;36018089;41271626;-87
2021/07/16 08:10:04;;;;;;;;;;;23.60;93.50;;;;;;5;36019965;41270192;-87
2021/07/16 08:13:21;;;;;;;;;;;24.10;93.40;;;;;;5;36017444;41271358;-85
2021/07/16 08:16:46;;;;;;;;;;;24.30;92.70;;;;;;5;36017602;41271569;-84
2021/07/16 08:20:08;;;;;;;;;;;24.40;92.80;;;;;;5;36018048;41270665;-86
2021/07/16 08:23:22;;;;;;;;;;;23.90;92.00;;;;;;5;36016926;41270899;-84
2021/07/16 08:26:39;;;;;;;;;;;23.50;91.80;;;;;;5;36017223;41271231;-86
2021/07/16 08:29:59;;;;;;;;;;;23.10;92.80;;;;;;5;36016547;41270711;-85
2021/07/16 08:33:20;;;;;;;;;;;22.80;94.30;;;;;;5;36018315;42019839;-84
2021/07/16 08:36:34;;;;;;;;;;;22.60;95.70;;;;;;5;36016306;41272629;-85
2021/07/16 08:39:51;;;;;;;;;;;22.20;97.10;;;;;;5;36018067;41270930;-84
2021/07/16 08:43:15;;;;;;;;;;;21.90;98.60;;;;;;5;36016924;41272000;-85
2021/07/16 08:46:34;;;;;;;;;;;21.60;99.20;;;;;;5;36016238;41271165;-85
2021/07/16 08:49:49;;;;;;;;;;;21.50;99.90;;;;;;5;36016298;41270288;-84
2021/07/16 08:53:06;;;;;;;;;;;21.30;99.90;;;;;;5;36017426;41269356;-84
2021/07/16 08:56:31;;;;;;;;;;;21.20;99.90;;;;;;5;36017158;41270661;-84
2021/07/16 08:59:50;;;;;;;;;;;21.30;99.90;;;;;;5;36016527;41270903;-83
2021/07/16 09:03:05;;;;;;;;;;;21.30;99.90;;;;;;5;36018186;41269748;-86
2021/07/16 09:06:47;;;;;;;;;;;21.20;99.90;;;;;;5;36016838;42023824;-84
2021/07/16 09:10:07;;;;;;;;;;;21.20;99.90;;;;;;5;36017702;41272587;-84
2021/07/16 09:13:27;;;;;;;;;;;21.10;99.90;;;;;;5;36017655;41271288;-87
2021/07/16 09:16:52;;;;;;;;;;;21.10;99.90;;;;;;5;36017486;41269830;-85
2021/07/16 09:20:10;;;;;;;;;;;21.00;99.90;;;;;;5;36017331;41271385;-89
2021/07/16 09:23:40;;;;;;;;;;;20.90;99.90;;;;;;5;36016494;41270809;-86
2021/07/16 09:26:59;;;;;;;;;;;21.10;99.90;;;;;;5;36018103;41271645;-87
2021/07/16 09:30:14;;;;;;;;;;;21.20;99.90;;;;;;5;36017561;41271254;-87
2021/07/16 09:33:39;;;;;;;;;;;21.20;99.90;;;;;;5;36020403;41270447;-87
2021/07/16 09:37:05;;;;;;;;;;;21.30;99.70;;;;;;5;36018039;41270366;-86
2021/07/16 09:40:28;;;;;;;;;;;21.30;99.90;;;;;;5;36016579;42020054;-84
2021/07/16 09:43:42;;;;;;;;;;;21.20;99.90;;;;;;5;36017384;41271622;-87
2021/07/16 09:47:08;;;;;;;;;;;21.50;99.90;;;;;;5;36020299;41270542;-87
2021/07/16 09:50:34;;;;;;;;;;;21.80;99.90;;;;;;5;36018239;41270485;-84
2021/07/16 09:53:54;;;;;;;;;;;22.50;98.80;;;;;;5;36017717;41271074;-88
2021/07/16 09:57:10;;;;;;;;;;;23.40;97.10;;;;;;5;36016816;41269637;-87
2021/07/16 10:00:27;;;;;;;;;;;24.20;95.10;;;;;;5;36017644;41270601;-87
2021/07/16 10:03:48;;;;;;;;;;;25.10;93.80;;;;;;5;36018860;41269199;-89
2021/07/16 10:07:07;;;;;;;;;;;26.20;90.90;;;;;;5;36018181;41271534;-88
2021/07/16 10:10:22;;;;;;;;;;;27.40;89.10;;;;;;5;36017964;41270052;-88
2021/07/16 10:13:41;;;;;;;;;;;30.00;80.50;;;;;;5;36017744;42020687;-86
2021/07/16 10:17:01;;;;;;;;;;;31.90;70.70;;;;;;5;36017589;41269091;-86
2021/07/16 10:20:20;;;;;;;;;;;32.10;66.00;;;;;;5;36017533;41268573;-87
2021/07/16 10:23:37;;;;;;;;;;;31.10;63.50;;;;;;5;36016415;41269180;-86
2021/07/16 10:26:54;;;;;;;;;;;30.80;64.30;;;;;;5;36017046;41268782;-87
2021/07/16 10:30:15;;;;;;;;;;;32.60;59.40;;;;;;5;36016883;41269722;-88
2021/07/16 10:33:36;;;;;;;;;;;35.50;59.10;;;;;;5;36016645;41269211;-87
2021/07/16 10:36:50;;;;;;;;;;;38.40;50.60;;;;;;5;36016221;41268337;-86
2021/07/16 10:40:08;;;;;;;;;;;38.60;47.20;;;;;;5;36015952;41267373;-87
2021/07/16 10:43:27;;;;;;;;;;;37.90;46.70;;;;;;5;36017559;41268441;-86
2021/07/16 10:46:48;;;;;;;;;;;37.00;46.50;;;;;;5;36014876;42019322;-89
2021/07/16 10:50:13;;;;;;;;;;;35.70;46.70;;;;;;5;36016308;41268708;-85
2021/07/16 10:53:30;;;;;;;;;;;37.50;44.90;;;;;;5;36016346;41269310;-85
2021/07/16 10:56:49;;;;;;;;;;;37.50;45.00;;;;;;5;36015955;41269296;-85
2021/07/16 11:00:14;;;;;;;;;;;37.30;45.90;;;;;;5;36017618;41269223;-86
2021/07/16 11:03:39;;;;;;;;;;;36.30;47.60;;;;;;5;36014907;41268780;-86
2021/07/16 11:06:57;;;;;;;;;;;35.70;47.40;;;;;;5;36015955;41269463;-85
2021/07/16 11:10:35;;;;;;;;;;;34.20;49.00;;;;;;5;36016520;41269476;-87
2021/07/16 11:13:55;;;;;;;;;;;32.80;50.10;;;;;;5;36016834;41269573;-86
2021/07/16 11:17:10;;;;;;;;;;;31.00;53.20;;;;;;5;36017560;41270529;-88
2021/07/16 11:20:30;;;;;;;;;;;30.00;53.80;;;;;;5;36017107;42021781;-86
2021/07/16 11:23:49;;;;;;;;;;;28.90;55.80;;;;;;5;36016360;41270889;-88
2021/07/16 11:27:17;;;;;;;;;;;28.20;59.40;;;;;;5;36018477;41269405;-88
2021/07/16 11:30:32;;;;;;;;;;;27.70;60.30;;;;;;5;36018098;41269716;-87
2021/07/16 11:33:55;;;;;;;;;;;27.40;61.10;;;;;;5;36017223;41269521;-88
2021/07/16 11:37:31;;;;;;;;;;;27.10;62.20;;;;;;5;36016760;41269675;-87
2021/07/16 11:40:50;;;;;;;;;;;27.00;60.60;;;;;;5;36017948;41270720;-86
2021/07/16 11:44:05;;;;;;;;;;;26.90;61.80;;;;;;5;36017704;41270486;-85
2021/07/16 11:47:25;;;;;;;;;;;26.90;63.60;;;;;;5;36017673;41270458;-85
2021/07/16 11:50:48;;;;;;;;;;;27.00;63.10;;;;;;5;36017659;41273037;-84
2021/07/16 11:54:28;;;;;;;;;;;27.20;62.50;;;;;;5;36017539;42021161;-84
2021/07/16 11:57:49;;;;;;;;;;;28.10;62.10;;;;;;5;36016889;41270497;-86
2021/07/16 12:01:11;;;;;;;;;;;29.60;58.00;;;;;;5;36018174;41270904;-86
2021/07/16 12:04:30;;;;;;;;;;;31.00;55.00;;;;;;5;36016695;41270577;-85
2021/07/16 12:07:49;;;;;;;;;;;33.40;51.20;;;;;;5;36017732;41269671;-86
2021/07/16 12:11:04;;;;;;;;;;;36.30;47.70;;;;;;5;36015737;41269468;-87
2021/07/16 12:14:21;;;;;;;;;;;38.40;43.30;;;;;;5;36015426;41269661;-86
2021/07/16 12:17:41;;;;;;;;;;;39.60;41.90;;;;;;5;36016749;41269938;-89
2021/07/16 12:21:04;;;;;;;;;;;40.70;40.90;;;;;;5;36016375;41268678;-89
2021/07/16 12:24:19;;;;;;;;;;;41.40;39.80;;;;;;5;36016625;41270707;-86
2021/07/16 12:27:38;;;;;;;;;;;42.10;39.20;;;;;;5;36017489;42020230;-85
2021/07/16 12:31:01;;;;;;;;;;;42.50;38.80;;;;;;5;36017558;41271000;-88
2021/07/16 12:34:21;;;;;;;;;;;42.80;38.50;;;;;;5;36016268;41269511;-87
2021/07/16 12:37:36;;;;;;;;;;;42.90;37.30;;;;;;5;36015879;41270729;-87
2021/07/16 12:41:04;;;;;;;;;;;43.30;36.90;;;;;;5;36014545;41268407;-90
2021/07/16 12:44:23;;;;;;;;;;;43.00;37.20;;;;;;5;36014042;41267486;-87
2021/07/16 12:47:51;;;;;;;;;;;41.90;37.30;;;;;;5;36014806;41267484;-86
2021/07/16 12:51:05;;;;;;;;;;;42.10;38.50;;;;;;5;36016029;41270157;-89
2021/07/16 12:54:23;;;;;;;;;;;42.30;37.70;;;;;;5;36017477;41268855;-88
2021/07/16 12:57:42;;;;;;;;;;;42.20;37.20;;;;;;5;36018159;41269308;-88
2021/07/16 13:01:03;;;;;;;;;;;41.80;38.00;;;;;;5;36017299;42019845;-88
2021/07/16 13:04:18;;;;;;;;;;;41.40;36.90;;;;;;5;36017457;41269922;-90
2021/07/16 13:07:36;;;;;;;;;;;41.60;37.00;;;;;;5;36015718;41269839;-89
2021/07/16 13:10:56;;;;;;;;;;;40.90;37.20;;;;;;5;36016529;41268578;-88
2021/07/16 13:14:27;;;;;;;;;;;39.40;37.90;;;;;;5;36016721;41270717;-89
2021/07/16 13:17:41;;;;;;;;;;;38.70;39.00;;;;;;5;36017064;41270133;-88
2021/07/16 13:20:58;;;;;;;;;;;38.40;40.30;;;;;;5;36017307;41267931;-88
2021/07/16 13:24:17;;;;;;;;;;;38.40;38.80;;;;;;5;36016353;41270284;-86
2021/07/16 13:27:37;;;;;;;;;;;38.10;39.90;;;;;;5;36016933;41269694;-89
2021/07/16 13:30:51;;;;;;;;;;;38.50;39.30;;;;;;5;36018128;41269871;-87
2021/07/16 13:34:10;;;;;;;;;;;38.40;39.60;;;;;;5;36016733;42020363;-89
2021/07/16 13:37:32;;;;;;;;;;;37.50;39.50;;;;;;5;36017237;41269721;-88
2021/07/16 13:40:52;;;;;;;;;;;37.60;40.30;;;;;;5;36016919;41269970;-89
2021/07/16 13:44:06;;;;;;;;;;;37.60;40.00;;;;;;5;36018001;41269392;-87
2021/07/16 13:47:23;;;;;;;;;;;37.00;40.00;;;;;;5;36017113;41269516;-88
2021/07/16 13:50:42;;;;;;;;;;;36.00;41.50;;;;;;5;36016561;41270979;-88
2021/07/16 13:54:02;;;;;;;;;;;35.00;42.40;;;;;;5;36018380;41272114;-87
2021/07/16 13:57:20;;;;;;;;;;;34.50;43.70;;;;;;5;36016926;41268933;-88
2021/07/16 14:00:37;;;;;;;;;;;34.20;44.10;;;;;;5;36016870;41269383;-88
2021/07/16 14:03:57;;;;;;;;;;;33.90;45.30;;;;;;5;36020159;41271465;-87
2021/07/16 14:07:18;;;;;;;;;;;33.30;45.90;;;;;;5;36018060;42019590;-89
2021/07/16 14:10:32;;;;;;;;;;;32.80;46.40;;;;;;5;36016740;41269654;-86
2021/07/16 14:13:49;;;;;;;;;;;32.20;48.10;;;;;;5;36018122;41269062;-89
2021/07/16 14:17:08;;;;;;;;;;;31.60;47.40;;;;;;5;36017535;41269720;-89
2021/07/16 14:20:28;;;;;;;;;;;31.20;48.60;;;;;;5;36015980;41270886;-88
2021/07/16 14:23:42;;;;;;;;;;;30.80;48.80;;;;;;5;36018747;41270958;-87
2021/07/16 14:27:00;;;;;;;;;;;30.30;48.70;;;;;;5;36016109;41270344;-87
2021/07/16 14:30:20;;;;;;;;;;;29.90;50.50;;;;;;5;36016509;41269371;-88
2021/07/16 14:33:40;;;;;;;;;;;29.90;51.30;;;;;;5;36018398;41269430;-88
2021/07/16 14:36:55;;;;;;;;;;;29.90;49.50;;;;;;5;36017284;41269276;-87
2021/07/16 14:40:13;;;;;;;;;;;29.90;50.00;;;;;;5;36016049;42021153;-90
2021/07/16 14:43:33;;;;;;;;;;;29.80;49.70;;;;;;5;36016872;41271566;-88
2021/07/16 14:46:52;;;;;;;;;;;29.70;48.70;;;;;;5;36015773;41270016;-87
2021/07/16 14:50:07;;;;;;;;;;;29.20;50.20;;;;;;5;36016359;41270547;-88
2021/07/16 14:53:24;;;;;;;;;;;28.80;51.30;;;;;;5;36017568;41270220;-84
2021/07/16 14:56:44;;;;;;;;;;;28.40;52.40;;;;;;5;36017706;41269618;-87
2021/07/16 15:00:04;;;;;;;;;;;27.90;53.20;;;;;;5;36016739;41272313;-87
2021/07/16 15:03:20;;;;;;;;;;;27.50;53.20;;;;;;5;36018134;41276329;-88
2021/07/16 15:06:37;;;;;;;;;;;27.20;54.50;;;;;;5;36016436;41268928;-88
2021/07/16 15:09:57;;;;;;;;;;;26.90;56.00;;;;;;5;36016180;41268859;-89
2021/07/16 15:13:18;;;;;;;;;;;26.60;56.70;;;;;;5;36017446;42019858;-88
2021/07/16 15:16:32;;;;;;;;;;;26.40;58.60;;;;;;5;36016682;41269490;-88
2021/07/16 15:19:50;;;;;;;;;;;26.20;59.20;;;;;;5;36017231;41270289;-88
2021/07/16 15:23:09;;;;;;;;;;;26.10;60.90;;;;;;5;36017448;41270706;-88
2021/07/16 15:26:29;;;;;;;;;;;25.90;61.50;;;;;;5;36016347;41267922;-86
2021/07/16 15:29:43;;;;;;;;;;;25.70;62.10;;;;;;5;36015852;41269268;-88
2021/07/16 15:33:00;;;;;;;;;;;25.50;63.40;;;;;;5;36016696;41270575;-88
2021/07/16 15:36:20;;;;;;;;;;;25.40;63.10;;;;;;5;36017178;41270338;-85
2021/07/16 15:39:39;;;;;;;;;;;25.20;64.90;;;;;;5;36016810;41270413;-85
2021/07/16 15:42:53;;;;;;;;;;;25.00;64.60;;;;;;5;36018729;41270706;-87
2021/07/16 15:46:12;;;;;;;;;;;24.80;65.10;;;;;;5;36017862;42020524;-87
2021/07/16 15:49:31;;;;;;;;;;;24.90;66.40;;;;;;5;36016434;41270931;-87
2021/07/16 15:52:51;;;;;;;;;;;24.80;66.10;;;;;;5;36018551;41270137;-87
2021/07/16 15:56:05;;;;;;;;;;;24.70;66.40;;;;;;5;36016899;41268771;-88
2021/07/16 15:59:22;;;;;;;;;;;24.50;66.40;;;;;;5;36016967;41269879;-88
2021/07/16 16:02:43;;;;;;;;;;;24.50;66.10;;;;;;5;36016463;41269622;-86
2021/07/16 16:06:03;;;;;;;;;;;24.40;66.70;;;;;;5;36015850;41270558;-85
2021/07/16 16:09:17;;;;;;;;;;;24.30;67.20;;;;;;5;36016615;41271283;-86
2021/07/16 16:12:34;;;;;;;;;;;24.20;68.30;;;;;;5;36018488;41268703;-87
2021/07/16 16:15:54;;;;;;;;;;;24.20;71.10;;;;;;5;36017977;41270896;-88
2021/07/16 16:19:15;;;;;;;;;;;24.10;72.40;;;;;;5;36017643;42020789;-87
2021/07/16 16:22:29;;;;;;;;;;;24.00;73.70;;;;;;5;36018172;41270296;-88
2021/07/16 16:25:46;;;;;;;;;;;24.00;76.20;;;;;;5;36016989;41269084;-87
2021/07/16 16:29:07;;;;;;;;;;;23.80;74.40;;;;;;5;36017511;41269996;-88
2021/07/16 16:32:27;;;;;;;;;;;23.70;76.20;;;;;;5;36017269;41270601;-87
2021/07/16 16:35:43;;;;;;;;;;;23.50;74.00;;;;;;5;36016644;41269308;-88
2021/07/16 16:39:00;;;;;;;;;;;23.20;76.50;;;;;;5;36018704;41270808;-86
2021/07/16 16:42:19;;;;;;;;;;;23.00;78.30;;;;;;5;36017604;41269217;-88
2021/07/16 16:45:39;;;;;;;;;;;22.70;78.10;;;;;;5;36018369;41270062;-87
2021/07/16 16:48:53;;;;;;;;;;;22.50;82.00;;;;;;5;36019261;41270596;-88
2021/07/16 16:52:12;;;;;;;;;;;22.60;82.40;;;;;;5;36016348;42020170;-89
2021/07/16 16:55:31;;;;;;;;;;;22.50;84.20;;;;;;5;36017714;41268844;-88
2021/07/16 16:58:50;;;;;;;;;;;22.20;83.80;;;;;;5;36018409;41269582;-87
2021/07/16 17:02:05;;;;;;;;;;;22.00;88.20;;;;;;5;36017205;41269972;-87
2021/07/16 17:05:22;;;;;;;;;;;21.70;89.40;;;;;;5;36017471;41271105;-87
2021/07/16 17:08:41;;;;;;;;;;;21.50;90.60;;;;;;5;36016487;41269962;-88
2021/07/16 17:12:01;;;;;;;;;;;21.30;91.50;;;;;;5;36015895;41270678;-88
2021/07/16 17:15:18;;;;;;;;;;;21.10;92.30;;;;;;5;36016598;41271724;-87
2021/07/16 17:18:35;;;;;;;;;;;20.90;92.90;;;;;;5;36016862;41271169;-87
2021/07/16 17:21:54;;;;;;;;;;;20.90;94.20;;;;;;5;36016044;41270286;-86
2021/07/16 17:25:15;;;;;;;;;;;21.00;94.70;;;;;;5;36016911;42019180;-86
2021/07/16 17:28:29;;;;;;;;;;;21.00;94.20;;;;;;5;36017359;41270672;-87
2021/07/16 17:31:47;;;;;;;;;;;21.10;95.00;;;;;;5;36017174;41269825;-87
2021/07/16 17:35:07;;;;;;;;;;;21.10;95.30;;;;;;5;36017826;41270420;-87
2021/07/16 17:38:26;;;;;;;;;;;21.00;95.00;;;;;;5;36017456;41271222;-85
2021/07/16 17:41:41;;;;;;;;;;;21.00;95.20;;;;;;5;36016306;41270525;-87
2021/07/16 17:44:58;;;;;;;;;;;20.90;96.30;;;;;;5;36016810;41269989;-85
2021/07/16 17:48:17;;;;;;;;;;;20.90;96.20;;;;;;5;36016279;41270608;-86
2021/07/16 17:51:37;;;;;;;;;;;21.10;96.00;;;;;;5;36018633;41270397;-88
2021/07/16 17:54:51;;;;;;;;;;;21.20;95.70;;;;;;5;36017774;41269621;-86
2021/07/16 17:58:10;;;;;;;;;;;21.30;95.80;;;;;;5;36016276;42019914;-86
2021/07/16 18:01:29;;;;;;;;;;;21.30;95.00;;;;;;5;36017882;41270030;-88
2021/07/16 18:04:48;;;;;;;;;;;21.20;94.50;;;;;;5;36017058;41270994;-88
2021/07/16 18:08:04;;;;;;;;;;;21.10;95.10;;;;;;5;36018043;41268882;-87
2021/07/16 18:11:21;;;;;;;;;;;21.00;95.00;;;;;;5;36017806;41271162;-87
2021/07/16 18:14:41;;;;;;;;;;;20.90;94.50;;;;;;5;36017955;41271775;-86
2021/07/16 18:18:04;;;;;;;;;;;20.90;95.00;;;;;;5;36017272;41271054;-85
2021/07/16 18:21:18;;;;;;;;;;;20.80;95.40;;;;;;5;36019133;41268971;-86
2021/07/16 18:24:35;;;;;;;;;;;20.60;96.90;;;;;;5;36018242;41270723;-87
2021/07/16 18:27:55;;;;;;;;;;;20.60;97.40;;;;;;5;36016814;41270076;-88
2021/07/16 18:31:16;;;;;;;;;;;20.60;97.30;;;;;;5;36017426;42020204;-86
2021/07/16 18:34:30;;;;;;;;;;;20.50;97.80;;;;;;5;36018275;41270271;-87
2021/07/16 18:37:48;;;;;;;;;;;20.60;97.50;;;;;;5;36017885;41270093;-86
2021/07/16 18:41:07;;;;;;;;;;;20.60;98.00;;;;;;5;36015919;41270289;-85
2021/07/16 18:44:26;;;;;;;;;;;20.60;97.70;;;;;;5;36018819;41269429;-88
2021/07/16 18:47:41;;;;;;;;;;;20.40;98.10;;;;;;5;36016957;41271177;-87
2021/07/16 18:50:58;;;;;;;;;;;20.30;99.10;;;;;;5;36016703;41270112;-86
2021/07/16 18:54:18;;;;;;;;;;;20.30;99.50;;;;;;5;36017419;41269257;-87
2021/07/16 18:57:40;;;;;;;;;;;20.30;99.90;;;;;;5;36016299;41269628;-88
2021/07/16 19:00:54;;;;;;;;;;;20.30;99.90;;;;;;5;36016356;41269667;-87
2021/07/16 19:04:15;;;;;;;;;;;20.40;99.90;;;;;;5;36019418;42022454;-88
2021/07/16 19:07:35;;;;;;;;;;;20.30;99.90;;;;;;5;36015894;41269769;-86
2021/07/16 19:10:54;;;;;;;;;;;20.30;99.90;;;;;;5;36017129;41270495;-88
2021/07/16 19:14:08;;;;;;;;;;;20.10;99.90;;;;;;5;36017188;41270619;-87
2021/07/16 19:17:31;;;;;;;;;;;19.80;99.90;;;;;;5;36016983;41268814;-87
2021/07/16 19:20:51;;;;;;;;;;;19.60;99.90;;;;;;5;36015761;41269760;-88
2021/07/16 19:24:10;;;;;;;;;;;19.60;99.90;;;;;;5;36017051;41268167;-87
2021/07/16 19:27:24;;;;;;;;;;;19.60;99.90;;;;;;5;36016360;41269788;-89
2021/07/16 19:30:44;;;;;;;;;;;19.60;99.90;;;;;;5;36016514;41270283;-87
2021/07/16 19:34:04;;;;;;;;;;;19.60;99.90;;;;;;5;36016944;41270128;-88
2021/07/16 19:37:25;;;;;;;;;;;19.50;99.90;;;;;;5;36017601;42019536;-87
2021/07/16 19:40:39;;;;;;;;;;;19.50;99.90;;;;;;5;36019020;41270552;-86
2021/07/16 19:43:56;;;;;;;;;;;19.40;99.90;;;;;;5;36018180;41271918;-87
2021/07/16 19:47:15;;;;;;;;;;;19.40;99.90;;;;;;5;36017705;41270320;-87
2021/07/16 19:50:35;;;;;;;;;;;19.30;99.90;;;;;;5;36017693;41269729;-87
2021/07/16 19:53:49;;;;;;;;;;;19.20;99.90;;;;;;5;36017017;41270519;-87
2021/07/16 19:57:07;;;;;;;;;;;19.20;99.90;;;;;;5;36018526;41270038;-87
2021/07/16 20:00:36;;;;;;;;;;;19.10;99.90;;;;;;5;36017370;41269775;-84
2021/07/16 20:03:56;;;;;;;;;;;18.90;99.90;;;;;;5;36016472;41269252;-87
2021/07/16 20:07:10;;;;;;;;;;;18.90;99.90;;;;;;5;36016662;41269883;-86
2021/07/16 20:10:29;;;;;;;;;;;18.90;99.90;;;;;;5;36017137;42019573;-85
2021/07/16 20:13:48;;;;;;;;;;;18.90;99.90;;;;;;5;36016663;41270310;-87
2021/07/16 20:17:08;;;;;;;;;;;18.80;99.90;;;;;;5;36016063;41270015;-86
2021/07/16 20:20:22;;;;;;;;;;;18.80;99.90;;;;;;5;36017363;41267735;-87
2021/07/16 20:23:41;;;;;;;;;;;18.80;99.90;;;;;;5;36016393;41267884;-87
2021/07/16 20:27:01;;;;;;;;;;;18.80;99.90;;;;;;5;36015817;41269091;-87
2021/07/16 20:30:20;;;;;;;;;;;18.60;99.90;;;;;;5;36017678;41269434;-87
2021/07/16 20:34:12;;;;;;;;;;;18.50;99.90;;;;;;5;36016149;41269769;-87
2021/07/16 20:37:29;;;;;;;;;;;18.40;99.90;;;;;;5;36018320;41268546;-87
2021/07/16 20:40:48;;;;;;;;;;;18.40;99.90;;;;;;5;36016604;41270731;-89
2021/07/16 20:44:10;;;;;;;;;;;18.20;99.90;;;;;;5;36017049;42019699;-86
2021/07/16 20:47:24;;;;;;;;;;;18.20;99.90;;;;;;5;36015703;41268945;-87
2021/07/16 20:50:42;;;;;;;;;;;18.30;99.90;;;;;;5;36016477;41268146;-88
2021/07/16 20:54:01;;;;;;;;;;;18.30;99.90;;;;;;5;36016839;41269895;-87
2021/07/16 20:57:21;;;;;;;;;;;18.30;99.90;;;;;;5;36015720;41269375;-88
2021/07/16 21:00:35;;;;;;;;;;;18.40;99.90;;;;;;5;36015748;41268993;-89
2021/07/16 21:03:52;;;;;;;;;;;18.40;99.90;;;;;;5;36015999;41267745;-88
2021/07/16 21:07:11;;;;;;;;;;;18.30;99.90;;;;;;5;36016012;41269903;-86
2021/07/16 21:10:31;;;;;;;;;;;18.30;99.90;;;;;;5;36015504;41269061;-88
2021/07/16 21:13:45;;;;;;;;;;;18.30;99.90;;;;;;5;36017684;41270401;-87
2021/07/16 21:17:04;;;;;;;;;;;18.40;99.90;;;;;;5;36016125;42019312;-87
2021/07/16 21:20:23;;;;;;;;;;;18.40;99.90;;;;;;5;36015629;41268315;-91
2021/07/16 21:23:43;;;;;;;;;;;18.30;99.90;;;;;;5;36015817;41269113;-89
2021/07/16 21:26:57;;;;;;;;;;;18.30;99.90;;;;;;5;36016119;41269728;-88